Time;durP1;ratioP1;P1;durP2;ratioP2;P2;SDS_P1;SDS_P2;PMS_P1;PMS_P2;Temp;Humidity;BMP_temperature;BMP_pressure;BME280_temperature;BME280_humidity;BME280_pressure;Samples;Min_cycle;Max_cycle;Signal;HPM_P1;HPM_P2
2022/04/12 00:00:52;;;;;;;5.22;4.72;;;;;;;;;;5083786;28;24426;-52
2022/04/12 00:03:17;;;;;;;4.90;4.37;;;;;;;;;;5077556;28;24492;-52
2022/04/12 00:05:43;;;;;;;4.40;4.00;;;;;;;;;;5084859;28;24997;-52
2022/04/12 00:08:08;;;;;;;6.28;4.60;;;;;;;;;;5084970;28;24480;-51
2022/04/12 00:10:33;;;;;;;4.43;4.03;;;;;;;;;;5089678;28;24516;-52
2022/04/12 00:12:59;;;;;;;4.87;4.37;;;;;;;;;;5073068;28;24419;-52
2022/04/12 00:15:24;;;;;;;7.10;4.32;;;;;;;;;;5074789;28;24418;-53
2022/04/12 00:20:34;;;;;;;6.25;4.57;;;;;;;;;;5070070;28;24414;-53
2022/04/12 00:22:59;;;;;;;5.88;4.60;;;;;;;;;;5070750;28;24793;-52
2022/04/12 00:25:25;;;;;;;5.83;4.30;;;;;;;;;;5074705;28;24538;-53
2022/04/12 00:27:51;;;;;;;4.90;4.40;;;;;;;;;;5077656;28;24434;-53
2022/04/12 00:30:16;;;;;;;4.80;4.40;;;;;;;;;;5073667;28;24454;-53
2022/04/12 00:32:41;;;;;;;6.80;4.60;;;;;;;;;;5078947;28;24776;-52
2022/04/12 00:35:07;;;;;;;4.80;4.30;;;;;;;;;;5085509;28;24502;-53
2022/04/12 00:37:32;;;;;;;4.70;4.30;;;;;;;;;;5084661;28;24426;-52
2022/04/12 00:39:57;;;;;;;6.53;4.77;;;;;;;;;;5073773;28;24773;-53
2022/04/12 00:42:22;;;;;;;4.80;4.40;;;;;;;;;;5079948;28;25289;-53
2022/04/12 00:44:48;;;;;;;4.90;4.40;;;;;;;;;;5076899;28;24963;-53
2022/04/12 00:47:14;;;;;;;6.15;4.70;;;;;;;;;;5075369;28;24758;-53
2022/04/12 00:49:39;;;;;;;4.60;4.20;;;;;;;;;;5070135;28;24419;-53
2022/04/12 00:52:04;;;;;;;6.10;4.43;;;;;;;;;;5072132;28;24427;-52
2022/04/12 00:54:31;;;;;;;6.17;4.60;;;;;;;;;;5081379;28;25035;-53
2022/04/12 00:56:56;;;;;;;6.53;4.57;;;;;;;;;;5082450;28;24507;-52
2022/04/12 00:59:22;;;;;;;5.40;4.10;;;;;;;;;;5087116;28;24450;-52
2022/04/12 01:01:47;;;;;;;5.00;4.40;;;;;;;;;;5082043;28;24431;-52
2022/04/12 01:04:12;;;;;;;5.00;4.50;;;;;;;;;;5077783;28;24444;-52
2022/04/12 01:06:37;;;;;;;5.77;4.63;;;;;;;;;;5079009;28;24988;-53
2022/04/12 01:09:05;;;;;;;5.05;4.55;;;;;;;;;;5082345;28;25437;-53
2022/04/12 01:11:30;;;;;;;5.00;4.50;;;;;;;;;;5081634;28;24517;-53
2022/04/12 01:13:55;;;;;;;5.60;4.50;;;;;;;;;;5069567;28;24517;-52
2022/04/12 01:16:20;;;;;;;5.05;4.60;;;;;;;;;;5076641;28;24506;-52
2022/04/12 01:18:46;;;;;;;4.50;4.10;;;;;;;;;;5086978;28;24558;-52
2022/04/12 01:21:11;;;;;;;4.93;4.43;;;;;;;;;;5073090;28;24426;-52
2022/04/12 01:23:51;;;;;;;4.40;4.00;;;;;;;;;;5080465;28;24491;-52
2022/04/12 01:26:16;;;;;;;4.63;4.10;;;;;;;;;;5080357;28;24453;-52
2022/04/12 01:28:44;;;;;;;5.30;4.80;;;;;;;;;;5084007;28;24538;-52
2022/04/12 01:31:10;;;;;;;5.45;4.95;;;;;;;;;;5074902;28;24411;-51
2022/04/12 01:33:35;;;;;;;4.97;4.57;;;;;;;;;;5072241;28;24476;-52
2022/04/12 01:36:00;;;;;;;5.90;4.63;;;;;;;;;;5085424;28;24501;-52
2022/04/12 01:38:25;;;;;;;5.10;4.60;;;;;;;;;;5079873;28;24586;-52
2022/04/12 01:40:50;;;;;;;4.80;4.40;;;;;;;;;;5085978;28;24430;-52
2022/04/12 01:43:16;;;;;;;5.15;4.40;;;;;;;;;;5076696;28;24444;-52
2022/04/12 01:45:41;;;;;;;5.20;4.70;;;;;;;;;;5076814;28;24597;-52
2022/04/12 01:48:06;;;;;;;5.57;4.77;;;;;;;;;;5083525;28;24430;-53
2022/04/12 01:50:31;;;;;;;4.60;4.20;;;;;;;;;;5073125;28;25010;-52
2022/04/12 01:52:56;;;;;;;5.10;4.40;;;;;;;;;;5073536;28;24964;-53
2022/04/12 01:55:21;;;;;;;5.40;4.90;;;;;;;;;;5073414;28;25081;-52
2022/04/12 01:57:47;;;;;;;5.07;4.50;;;;;;;;;;5068886;28;24425;-53
2022/04/12 02:00:12;;;;;;;5.30;4.70;;;;;;;;;;5074720;28;24794;-53
2022/04/12 02:02:37;;;;;;;5.53;4.83;;;;;;;;;;5085503;28;25237;-53
2022/04/12 02:05:02;;;;;;;4.63;4.20;;;;;;;;;;5070044;28;24418;-53
2022/04/12 02:07:28;;;;;;;5.47;4.70;;;;;;;;;;5070852;28;24410;-52
2022/04/12 02:09:53;;;;;;;5.10;4.60;;;;;;;;;;5079199;28;25069;-52
2022/04/12 02:12:18;;;;;;;5.15;4.65;;;;;;;;;;5076944;28;24442;-54
2022/04/12 02:14:43;;;;;;;5.20;4.70;;;;;;;;;;5081677;28;24766;-53
2022/04/12 02:17:08;;;;;;;5.43;4.70;;;;;;;;;;5074700;28;24779;-53
2022/04/12 02:19:33;;;;;;;4.83;4.43;;;;;;;;;;5072477;28;24523;-53
2022/04/12 02:21:59;;;;;;;4.70;4.20;;;;;;;;;;5075284;28;24964;-53
2022/04/12 02:24:24;;;;;;;5.20;4.70;;;;;;;;;;5080766;28;25014;-53
2022/04/12 02:26:49;;;;;;;5.57;5.07;;;;;;;;;;5071399;28;24427;-52
2022/04/12 02:29:14;;;;;;;5.55;5.00;;;;;;;;;;5072190;28;24797;-52
2022/04/12 02:31:40;;;;;;;5.35;4.85;;;;;;;;;;5077517;28;24506;-52
2022/04/12 02:34:05;;;;;;;6.10;5.00;;;;;;;;;;5069239;28;24778;-51
2022/04/12 02:36:30;;;;;;;5.20;4.70;;;;;;;;;;5077899;28;24424;-52
2022/04/12 02:38:56;;;;;;;5.40;4.90;;;;;;;;;;5073680;28;24419;-52
2022/04/12 02:41:21;;;;;;;6.47;5.13;;;;;;;;;;5071956;28;24421;-52
2022/04/12 02:43:46;;;;;;;5.00;4.60;;;;;;;;;;5079892;28;24419;-53
2022/04/12 02:46:11;;;;;;;6.67;5.20;;;;;;;;;;5083143;28;24454;-52
2022/04/12 02:48:36;;;;;;;6.00;5.40;;;;;;;;;;5075980;28;24479;-52
2022/04/12 02:51:02;;;;;;;5.43;4.93;;;;;;;;;;5071471;28;24489;-52
2022/04/12 02:53:27;;;;;;;5.23;4.73;;;;;;;;;;5079285;28;24435;-53
2022/04/12 02:55:52;;;;;;;5.37;4.80;;;;;;;;;;5074853;28;24415;-53
2022/04/12 02:58:17;;;;;;;5.65;4.70;;;;;;;;;;5083564;28;24425;-52
2022/04/12 03:00:42;;;;;;;5.40;4.90;;;;;;;;;;5080264;28;24415;-53
2022/04/12 03:03:07;;;;;;;5.23;4.73;;;;;;;;;;5069256;28;24588;-52
2022/04/12 03:05:32;;;;;;;5.40;4.90;;;;;;;;;;5074720;28;24421;-53
2022/04/12 03:07:58;;;;;;;5.20;4.70;;;;;;;;;;5079687;28;24457;-52
2022/04/12 03:10:23;;;;;;;5.78;5.18;;;;;;;;;;5082180;28;24414;-52
2022/04/12 03:12:50;;;;;;;6.20;5.20;;;;;;;;;;5075046;28;24479;-52
2022/04/12 03:15:15;;;;;;;5.80;5.20;;;;;;;;;;5074189;28;25008;-53
2022/04/12 03:17:40;;;;;;;5.60;5.10;;;;;;;;;;5080424;28;24422;-53
2022/04/12 03:20:05;;;;;;;5.60;5.10;;;;;;;;;;5070190;28;24777;-52
2022/04/12 03:22:31;;;;;;;8.37;5.27;;;;;;;;;;5071080;28;24472;-53
2022/04/12 03:24:56;;;;;;;5.97;5.03;;;;;;;;;;5080438;28;24429;-53
2022/04/12 03:27:21;;;;;;;6.47;5.30;;;;;;;;;;5079138;28;25112;-52
2022/04/12 03:29:46;;;;;;;5.93;5.33;;;;;;;;;;5084913;28;24437;-51
2022/04/12 03:32:11;;;;;;;6.60;5.40;;;;;;;;;;5070937;28;24449;-52
2022/04/12 03:34:39;;;;;;;5.80;5.20;;;;;;;;;;5076696;28;24418;-52
2022/04/12 03:37:04;;;;;;;6.78;5.40;;;;;;;;;;5075143;28;24453;-52
2022/04/12 03:39:29;;;;;;;6.53;5.67;;;;;;;;;;5074072;28;24438;-51
2022/04/12 03:41:54;;;;;;;6.20;5.43;;;;;;;;;;5067555;28;24410;-52
2022/04/12 03:44:20;;;;;;;5.45;5.00;;;;;;;;;;5067453;28;24505;-52
2022/04/12 03:46:45;;;;;;;6.15;5.55;;;;;;;;;;5081973;28;24426;-52
2022/04/12 03:49:13;;;;;;;5.88;5.38;;;;;;;;;;5079792;28;25174;-52
2022/04/12 03:51:38;;;;;;;5.95;5.03;;;;;;;;;;5073073;28;24487;-53
2022/04/12 03:54:04;;;;;;;7.43;5.50;;;;;;;;;;5072940;28;24567;-53
2022/04/12 03:56:29;;;;;;;5.37;4.87;;;;;;;;;;5075226;28;24967;-53
2022/04/12 03:58:57;;;;;;;5.63;5.13;;;;;;;;;;5069899;28;24893;-53
2022/04/12 04:01:22;;;;;;;6.38;5.70;;;;;;;;;;5083221;28;24424;-53
2022/04/12 04:03:47;;;;;;;6.15;5.28;;;;;;;;;;5079938;28;24429;-53
2022/04/12 04:06:13;;;;;;;6.60;5.50;;;;;;;;;;5070955;28;24453;-53
2022/04/12 04:08:38;;;;;;;6.00;5.40;;;;;;;;;;5073637;28;24974;-53
2022/04/12 04:11:03;;;;;;;6.60;5.90;;;;;;;;;;5086668;28;24450;-52
2022/04/12 04:13:30;;;;;;;7.30;6.00;;;;;;;;;;5082824;28;24418;-53
2022/04/12 04:15:55;;;;;;;9.80;7.68;;;;;;;;;;5070746;28;24409;-52
2022/04/12 04:18:21;;;;;;;11.67;8.90;;;;;;;;;;5078325;28;24473;-56
2022/04/12 04:20:46;;;;;;;8.60;6.83;;;;;;;;;;5078362;28;24426;-53
2022/04/12 04:23:11;;;;;;;6.33;5.73;;;;;;;;;;5072269;28;24487;-53
2022/04/12 04:25:38;;;;;;;7.60;6.07;;;;;;;;;;5080226;28;24800;-53
2022/04/12 04:28:05;;;;;;;5.83;5.33;;;;;;;;;;5063659;28;25504;-53
2022/04/12 04:30:33;;;;;;;6.80;6.00;;;;;;;;;;5079543;28;24473;-52
2022/04/12 04:32:58;;;;;;;5.97;5.35;;;;;;;;;;5084414;28;24455;-52
2022/04/12 04:35:24;;;;;;;6.47;5.80;;;;;;;;;;5071739;28;24425;-52
2022/04/12 04:37:50;;;;;;;8.43;6.50;;;;;;;;;;5073256;28;24410;-53
2022/04/12 04:40:16;;;;;;;8.13;6.57;;;;;;;;;;5070686;28;24788;-53
2022/04/12 04:42:42;;;;;;;6.50;5.80;;;;;;;;;;5075027;28;24484;-53
2022/04/12 04:45:08;;;;;;;9.00;6.15;;;;;;;;;;5067570;28;24426;-54
2022/04/12 04:47:33;;;;;;;7.77;6.77;;;;;;;;;;5087699;28;24445;-53
2022/04/12 04:49:58;;;;;;;7.20;6.50;;;;;;;;;;5083158;28;24510;-55
2022/04/12 04:52:24;;;;;;;7.95;7.13;;;;;;;;;;5075421;28;24422;-52
2022/04/12 04:54:49;;;;;;;6.20;5.60;;;;;;;;;;5067264;28;24445;-53
2022/04/12 04:57:14;;;;;;;7.55;6.38;;;;;;;;;;5070896;28;25164;-53
2022/04/12 04:59:39;;;;;;;7.23;6.53;;;;;;;;;;5068675;28;24510;-52
2022/04/12 05:02:04;;;;;;;8.70;6.72;;;;;;;;;;5077541;28;24446;-52
2022/04/12 05:04:29;;;;;;;6.77;5.73;;;;;;;;;;5075818;28;24472;-52
2022/04/12 05:06:55;;;;;;;6.33;5.70;;;;;;;;;;5076028;28;24422;-53
2022/04/12 05:09:20;;;;;;;7.54;6.08;;;;;;;;;;5070356;28;24442;-53
2022/04/12 05:11:45;;;;;;;6.27;5.67;;;;;;;;;;5094198;28;24409;-54
2022/04/12 05:14:10;;;;;;;6.45;5.78;;;;;;;;;;5072679;28;24403;-54
2022/04/12 05:16:35;;;;;;;6.70;5.85;;;;;;;;;;5073875;28;24411;-54
2022/04/12 05:19:00;;;;;;;7.03;5.53;;;;;;;;;;5067008;28;24569;-54
2022/04/12 05:21:25;;;;;;;7.13;5.50;;;;;;;;;;5075259;28;25014;-53
2022/04/12 05:23:51;;;;;;;6.82;6.10;;;;;;;;;;5081152;28;25035;-52
2022/04/12 05:26:16;;;;;;;7.47;5.80;;;;;;;;;;5069422;28;24411;-52
2022/04/12 05:28:41;;;;;;;7.18;5.50;;;;;;;;;;5068637;28;24487;-52
2022/04/12 05:31:06;;;;;;;6.40;5.80;;;;;;;;;;5069342;28;24414;-54
2022/04/12 05:33:31;;;;;;;6.78;5.55;;;;;;;;;;5068861;28;24820;-53
2022/04/12 05:35:56;;;;;;;7.47;5.70;;;;;;;;;;5083512;28;24467;-53
2022/04/12 05:38:21;;;;;;;6.50;5.80;;;;;;;;;;5089417;28;24409;-54
2022/04/12 05:40:47;;;;;;;9.13;6.10;;;;;;;;;;5089044;28;24518;-52
2022/04/12 05:43:12;;;;;;;9.37;6.90;;;;;;;;;;5088884;28;24443;-53
2022/04/12 05:45:37;;;;;;;8.70;6.60;;;;;;;;;;5087064;28;24499;-52
2022/04/12 05:48:02;;;;;;;6.18;5.57;;;;;;;;;;5088621;28;24442;-52
2022/04/12 05:50:28;;;;;;;7.20;6.50;;;;;;;;;;5075518;28;24403;-52
2022/04/12 05:52:53;;;;;;;7.93;5.87;;;;;;;;;;5083114;28;24479;-51
2022/04/12 05:55:20;;;;;;;6.83;6.13;;;;;;;;;;5074411;28;24414;-53
2022/04/12 05:57:49;;;;;;;8.80;6.30;;;;;;;;;;5083760;28;24509;-52
2022/04/12 06:00:14;;;;;;;7.20;6.30;;;;;;;;;;5071885;28;24415;-53
2022/04/12 06:02:39;;;;;;;7.97;6.30;;;;;;;;;;5094028;28;24429;-53
2022/04/12 06:05:05;;;;;;;7.88;6.80;;;;;;;;;;5068801;28;25077;-52
2022/04/12 06:07:31;;;;;;;7.80;7.00;;;;;;;;;;5085694;28;24450;-54
2022/04/12 06:09:56;;;;;;;7.03;6.38;;;;;;;;;;5086232;28;24426;-52
2022/04/12 06:12:22;;;;;;;7.60;6.85;;;;;;;;;;5068397;28;24449;-52
2022/04/12 06:14:47;;;;;;;9.40;8.50;;;;;;;;;;5071079;28;24402;-51
2022/04/12 06:17:12;;;;;;;9.60;8.38;;;;;;;;;;5078565;28;24410;-53
2022/04/12 06:19:37;;;;;;;9.50;7.60;;;;;;;;;;5076500;28;24894;-53
2022/04/12 06:22:02;;;;;;;8.63;7.50;;;;;;;;;;5068646;28;24430;-52
2022/04/12 06:24:27;;;;;;;8.70;7.90;;;;;;;;;;5075839;28;24769;-53
2022/04/12 06:26:52;;;;;;;7.47;6.78;;;;;;;;;;5085203;28;24401;-52
2022/04/12 06:29:18;;;;;;;8.38;6.97;;;;;;;;;;5087954;28;24484;-53
2022/04/12 06:31:43;;;;;;;9.05;7.05;;;;;;;;;;5087978;28;24402;-52
2022/04/12 06:34:08;;;;;;;6.95;6.30;;;;;;;;;;5087630;28;24399;-52
2022/04/12 06:36:33;;;;;;;5.30;4.80;;;;;;;;;;5087984;28;25271;-53
2022/04/12 06:38:58;;;;;;;7.60;6.30;;;;;;;;;;5077035;28;24449;-53
2022/04/12 06:41:24;;;;;;;6.50;5.30;;;;;;;;;;5084827;28;24394;-52
2022/04/12 06:43:49;;;;;;;5.63;5.10;;;;;;;;;;5087089;28;24434;-54
2022/04/12 06:46:14;;;;;;;6.40;5.40;;;;;;;;;;5088072;28;24820;-53
2022/04/12 06:48:40;;;;;;;5.90;5.30;;;;;;;;;;5087188;28;24410;-53
2022/04/12 06:51:05;;;;;;;6.53;5.55;;;;;;;;;;5087900;28;24447;-52
2022/04/12 06:53:30;;;;;;;6.93;5.40;;;;;;;;;;5085871;28;24987;-52
2022/04/12 06:55:55;;;;;;;6.67;5.20;;;;;;;;;;5087882;28;24378;-52
2022/04/12 06:58:20;;;;;;;5.97;4.95;;;;;;;;;;5087776;28;24386;-52
2022/04/12 07:00:45;;;;;;;4.90;4.50;;;;;;;;;;5087510;28;24463;-52
2022/04/12 07:03:11;;;;;;;6.30;5.10;;;;;;;;;;5084662;28;24964;-53
2022/04/12 07:05:36;;;;;;;5.97;4.85;;;;;;;;;;5087575;28;24489;-52
2022/04/12 07:08:01;;;;;;;6.85;5.20;;;;;;;;;;5087566;28;24394;-53
2022/04/12 07:10:26;;;;;;;5.93;5.20;;;;;;;;;;5087718;28;25212;-52
2022/04/12 07:12:53;;;;;;;5.50;5.00;;;;;;;;;;5087262;28;24413;-53
2022/04/12 07:15:19;;;;;;;6.32;5.70;;;;;;;;;;5085323;28;25013;-53
2022/04/12 07:17:44;;;;;;;5.70;4.70;;;;;;;;;;5087106;28;24502;-52
2022/04/12 07:20:09;;;;;;;6.03;5.28;;;;;;;;;;5087690;28;24437;-53
2022/04/12 07:22:34;;;;;;;5.90;5.30;;;;;;;;;;5087285;28;24433;-52
2022/04/12 07:24:59;;;;;;;5.80;5.20;;;;;;;;;;5075010;28;24450;-53
2022/04/12 07:27:25;;;;;;;6.75;5.50;;;;;;;;;;5067406;28;24518;-52
2022/04/12 07:29:50;;;;;;;5.87;5.27;;;;;;;;;;5066713;28;24534;-52
2022/04/12 07:32:15;;;;;;;5.50;4.50;;;;;;;;;;5065632;28;24487;-52
2022/04/12 07:34:40;;;;;;;5.73;5.17;;;;;;;;;;5069242;28;24414;-53
2022/04/12 07:37:05;;;;;;;5.75;5.15;;;;;;;;;;5087386;28;24441;-53
2022/04/12 07:39:31;;;;;;;6.60;5.70;;;;;;;;;;5087566;28;24394;-53
2022/04/12 07:41:56;;;;;;;5.97;5.30;;;;;;;;;;5086893;28;24418;-53
2022/04/12 07:44:21;;;;;;;5.50;5.00;;;;;;;;;;5086757;28;24425;-53
2022/04/12 07:46:46;;;;;;;5.80;5.20;;;;;;;;;;5077536;28;24836;-52
2022/04/12 07:49:12;;;;;;;5.57;4.97;;;;;;;;;;5066699;28;24812;-53
2022/04/12 07:51:37;;;;;;;6.60;5.40;;;;;;;;;;5066862;28;24382;-53
2022/04/12 07:54:03;;;;;;;7.63;5.83;;;;;;;;;;5066791;28;25095;-53
2022/04/12 07:56:29;;;;;;;5.72;5.13;;;;;;;;;;5066736;28;24418;-53
2022/04/12 07:58:54;;;;;;;6.30;5.40;;;;;;;;;;5068652;28;24612;-53
2022/04/12 08:01:19;;;;;;;6.20;5.60;;;;;;;;;;5081924;28;24410;-53
2022/04/12 08:03:44;;;;;;;5.80;4.90;;;;;;;;;;5086454;28;24444;-53
2022/04/12 08:06:09;;;;;;;5.80;5.10;;;;;;;;;;5087130;28;25192;-54
2022/04/12 08:08:35;;;;;;;5.65;5.15;;;;;;;;;;5069152;28;24430;-53
2022/04/12 08:11:00;;;;;;;5.40;4.90;;;;;;;;;;5066314;28;24424;-53
2022/04/12 08:13:25;;;;;;;6.40;5.00;;;;;;;;;;5066961;28;24482;-53
2022/04/12 08:15:50;;;;;;;5.73;5.13;;;;;;;;;;5068927;28;24741;-54
2022/04/12 08:18:15;;;;;;;5.72;5.03;;;;;;;;;;5070159;28;24531;-53
2022/04/12 08:20:41;;;;;;;5.22;4.72;;;;;;;;;;5070208;28;24425;-53
2022/04/12 08:23:06;;;;;;;6.53;5.37;;;;;;;;;;5079831;28;24422;-53
2022/04/12 08:25:31;;;;;;;5.07;4.57;;;;;;;;;;5090103;28;24394;-52
2022/04/12 08:27:56;;;;;;;5.97;5.20;;;;;;;;;;5090793;28;24921;-52
2022/04/12 08:30:21;;;;;;;5.43;4.93;;;;;;;;;;5090191;28;24441;-52
2022/04/12 08:32:47;;;;;;;5.37;4.87;;;;;;;;;;5085023;28;24422;-52
2022/04/12 08:35:12;;;;;;;6.63;4.93;;;;;;;;;;5069543;28;24472;-52
2022/04/12 08:37:37;;;;;;;6.30;5.33;;;;;;;;;;5070246;28;25007;-53
2022/04/12 08:40:02;;;;;;;7.13;5.60;;;;;;;;;;5067976;28;24511;-53
2022/04/12 08:42:27;;;;;;;5.43;4.93;;;;;;;;;;5069815;28;24389;-52
2022/04/12 08:44:53;;;;;;;6.90;5.30;;;;;;;;;;5069562;28;24505;-53
2022/04/12 08:47:19;;;;;;;5.53;4.72;;;;;;;;;;5070151;28;24428;-53
2022/04/12 08:49:44;;;;;;;6.25;4.53;;;;;;;;;;5069198;28;24417;-53
2022/04/12 08:52:13;;;;;;;5.65;4.43;;;;;;;;;;5069371;28;24407;-53
2022/04/12 08:54:42;;;;;;;6.10;4.70;;;;;;;;;;5069383;28;24391;-52
2022/04/12 08:57:07;;;;;;;6.05;4.45;;;;;;;;;;5072311;28;24509;-52
2022/04/12 08:59:33;;;;;;;4.40;4.00;;;;;;;;;;5089627;28;24474;-52
2022/04/12 09:01:58;;;;;;;5.60;4.30;;;;;;;;;;5089506;28;24428;-52
2022/04/12 09:04:26;;;;;;;5.17;3.90;;;;;;;;;;5089511;28;24398;-51
2022/04/12 09:06:52;;;;;;;5.18;4.20;;;;;;;;;;5089585;28;24951;-53
2022/04/12 09:09:22;;;;;;;6.85;4.25;;;;;;;;;;5089460;28;24470;-53
2022/04/12 09:12:00;;;;;;;4.70;4.17;;;;;;;;;;5089015;28;24761;-53
2022/04/12 09:14:35;;;;;;;4.13;3.78;;;;;;;;;;5089114;28;24424;-52
2022/04/12 09:17:00;;;;;;;4.45;3.38;;;;;;;;;;5089146;28;24406;-53
2022/04/12 09:19:38;;;;;;;3.83;3.33;;;;;;;;;;5089432;28;24795;-53
2022/04/12 09:22:54;;;;;;;4.28;3.38;;;;;;;;;;5085568;28;24417;-52
2022/04/12 09:25:01;;;;;;;4.40;3.60;;;;;;;;;;5062787;28;24434;-52
2022/04/12 09:27:27;;;;;;;6.63;3.80;;;;;;;;;;5068786;28;24951;-53
2022/04/12 09:29:54;;;;;;;3.75;3.45;;;;;;;;;;5068697;28;24434;-53
2022/04/12 09:32:23;;;;;;;5.57;3.55;;;;;;;;;;5068473;28;24921;-52
2022/04/12 09:34:49;;;;;;;4.45;3.80;;;;;;;;;;5068645;28;24967;-53
2022/04/12 09:37:31;;;;;;;6.05;4.00;;;;;;;;;;5069104;28;24395;-53
2022/04/12 09:39:59;;;;;;;3.80;3.30;;;;;;;;;;5068501;28;24405;-54
2022/04/12 09:42:39;;;;;;;4.78;3.53;;;;;;;;;;5069063;28;25219;-53
2022/04/12 09:45:05;;;;;;;5.57;3.40;;;;;;;;;;5086080;28;24460;-52
2022/04/12 09:47:30;;;;;;;4.00;3.60;;;;;;;;;;5089003;28;24406;-52
2022/04/12 09:49:56;;;;;;;3.70;3.40;;;;;;;;;;5089059;28;24419;-52
2022/04/12 09:52:21;;;;;;;4.18;3.50;;;;;;;;;;5088901;28;24514;-52
2022/04/12 09:54:46;;;;;;;4.50;3.50;;;;;;;;;;5087243;28;24862;-52
2022/04/12 09:57:11;;;;;;;5.30;3.60;;;;;;;;;;5088895;28;24395;-51
2022/04/12 09:59:38;;;;;;;4.27;3.87;;;;;;;;;;5088746;28;24401;-53
2022/04/12 10:02:03;;;;;;;5.13;3.90;;;;;;;;;;5088730;28;24718;-52
2022/04/12 10:04:28;;;;;;;5.77;3.57;;;;;;;;;;5085951;28;24948;-51
2022/04/12 10:06:54;;;;;;;3.60;3.30;;;;;;;;;;5088507;28;24467;-53
2022/04/12 10:09:20;;;;;;;4.70;3.63;;;;;;;;;;5088716;28;24414;-52
2022/04/12 10:11:46;;;;;;;4.03;3.70;;;;;;;;;;5088707;28;24394;-52
2022/04/12 10:14:12;;;;;;;4.72;3.90;;;;;;;;;;5079064;28;24427;-52
2022/04/12 10:16:39;;;;;;;4.90;3.50;;;;;;;;;;5071141;28;24584;-52
2022/04/12 10:19:05;;;;;;;4.00;3.60;;;;;;;;;;5088307;28;24460;-52
2022/04/12 10:21:30;;;;;;;3.60;3.30;;;;;;;;;;5074872;28;24418;-53
2022/04/12 10:23:56;;;;;;;5.30;3.80;;;;;;;;;;5067766;28;24402;-53
2022/04/12 10:26:22;;;;;;;4.18;3.80;;;;;;;;;;5067967;28;24431;-53
2022/04/12 10:28:54;;;;;;;7.50;4.20;;;;;;;;;;5067987;28;24418;-52
2022/04/12 10:31:21;;;;;;;4.70;3.60;;;;;;;;;;5074280;28;24417;-52
2022/04/12 10:34:01;;;;;;;5.07;3.80;;;;;;;;;;5088073;28;24421;-53
2022/04/12 10:36:45;;;;;;;4.63;3.90;;;;;;;;;;5087958;28;24389;-52
2022/04/12 10:39:11;;;;;;;5.22;3.50;;;;;;;;;;5087784;28;24505;-52
2022/04/12 10:41:38;;;;;;;3.77;3.37;;;;;;;;;;5086418;28;24438;-52
2022/04/12 10:44:04;;;;;;;5.43;3.70;;;;;;;;;;5087702;28;24900;-53
2022/04/12 10:46:46;;;;;;;4.00;3.50;;;;;;;;;;5087523;28;24463;-52
2022/04/12 10:49:11;;;;;;;4.25;3.60;;;;;;;;;;5087860;28;24409;-52
2022/04/12 10:51:38;;;;;;;4.20;3.80;;;;;;;;;;5074110;28;24454;-52
2022/04/12 10:54:04;;;;;;;4.20;3.80;;;;;;;;;;5067346;28;24413;-52
2022/04/12 10:56:29;;;;;;;4.57;3.67;;;;;;;;;;5087695;28;24954;-53
2022/04/12 10:58:54;;;;;;;7.60;5.10;;;;;;;;;;5087269;28;24806;-51
2022/04/12 11:01:29;;;;;;;5.70;4.20;;;;;;;;;;5085561;28;24510;-52
2022/04/12 11:03:55;;;;;;;3.60;3.30;;;;;;;;;;5087384;28;24997;-51
2022/04/12 11:06:21;;;;;;;4.00;3.30;;;;;;;;;;5087195;28;24398;-53
2022/04/12 11:08:49;;;;;;;4.30;3.67;;;;;;;;;;5087683;28;24418;-53
2022/04/12 11:11:21;;;;;;;4.50;3.90;;;;;;;;;;5074484;28;24421;-52
2022/04/12 11:13:46;;;;;;;6.00;4.25;;;;;;;;;;5067040;28;24448;-53
2022/04/12 11:16:12;;;;;;;4.20;3.80;;;;;;;;;;5066914;28;24959;-53
2022/04/12 11:18:47;;;;;;;4.30;3.70;;;;;;;;;;5067185;28;24419;-52
2022/04/12 11:21:13;;;;;;;6.33;4.20;;;;;;;;;;5074783;28;24450;-52
2022/04/12 11:23:51;;;;;;;4.70;4.30;;;;;;;;;;5087232;28;25059;-53
2022/04/12 11:26:36;;;;;;;5.20;4.68;;;;;;;;;;5074624;28;24426;-53
2022/04/12 11:29:05;;;;;;;5.90;5.30;;;;;;;;;;5066843;28;24433;-53
2022/04/12 11:31:30;;;;;;;5.25;4.75;;;;;;;;;;5067023;28;24496;-53
2022/04/12 11:33:57;;;;;;;5.30;4.80;;;;;;;;;;5067043;28;24411;-53
2022/04/12 11:36:22;;;;;;;5.05;4.65;;;;;;;;;;5066279;28;24419;-53
2022/04/12 11:38:47;;;;;;;5.80;5.20;;;;;;;;;;5067276;28;24409;-52
2022/04/12 11:41:12;;;;;;;7.45;5.30;;;;;;;;;;5066580;28;24375;-53
2022/04/12 11:43:38;;;;;;;6.20;5.60;;;;;;;;;;5066734;28;24442;-53
2022/04/12 11:46:03;;;;;;;6.80;6.00;;;;;;;;;;5066477;28;24827;-52
2022/04/12 11:48:29;;;;;;;6.45;5.82;;;;;;;;;;5067501;28;24450;-52
2022/04/12 11:50:54;;;;;;;6.60;5.90;;;;;;;;;;5070490;28;24796;-52
2022/04/12 11:53:20;;;;;;;6.60;5.63;;;;;;;;;;5074730;28;24395;-52
2022/04/12 11:55:46;;;;;;;6.20;5.60;;;;;;;;;;5091057;28;24444;-52
2022/04/12 11:58:11;;;;;;;8.68;6.25;;;;;;;;;;5089055;28;24416;-52
2022/04/12 12:00:36;;;;;;;7.43;6.60;;;;;;;;;;5091187;28;24401;-53
2022/04/12 12:03:01;;;;;;;6.32;5.72;;;;;;;;;;5090810;28;24481;-53
2022/04/12 12:05:27;;;;;;;6.18;5.60;;;;;;;;;;5090745;28;24437;-52
2022/04/12 12:07:56;;;;;;;8.77;5.80;;;;;;;;;;5080107;28;24976;-51
2022/04/12 12:10:22;;;;;;;6.32;5.72;;;;;;;;;;5070700;28;24502;-51
2022/04/12 12:12:47;;;;;;;5.80;5.20;;;;;;;;;;5070709;28;24482;-52
2022/04/12 12:15:21;;;;;;;6.60;5.60;;;;;;;;;;5069861;28;24944;-53
2022/04/12 12:17:48;;;;;;;5.95;5.45;;;;;;;;;;5070423;28;24499;-53
2022/04/12 12:20:14;;;;;;;6.68;5.50;;;;;;;;;;5069794;28;24449;-53
2022/04/12 12:22:44;;;;;;;6.50;5.93;;;;;;;;;;5070338;28;24403;-52
2022/04/12 12:25:10;;;;;;;6.18;5.57;;;;;;;;;;5070151;28;24430;-53
2022/04/12 12:27:36;;;;;;;6.00;5.40;;;;;;;;;;5070194;28;24429;-52
2022/04/12 12:30:13;;;;;;;6.00;5.45;;;;;;;;;;5070015;28;24438;-52
2022/04/12 12:32:39;;;;;;;5.63;5.10;;;;;;;;;;5070007;28;24501;-53
2022/04/12 12:35:09;;;;;;;6.30;5.40;;;;;;;;;;5070142;28;24528;-53
2022/04/12 12:37:34;;;;;;;6.25;5.60;;;;;;;;;;5069885;28;24461;-53
2022/04/12 12:40:00;;;;;;;5.95;5.35;;;;;;;;;;5070192;28;24498;-53
2022/04/12 12:42:34;;;;;;;5.87;5.23;;;;;;;;;;5069620;28;24427;-54
2022/04/12 12:45:07;;;;;;;7.50;5.70;;;;;;;;;;5069858;28;24397;-53
2022/04/12 12:47:34;;;;;;;6.60;6.00;;;;;;;;;;5069620;28;25096;-53
2022/04/12 12:49:59;;;;;;;5.97;5.45;;;;;;;;;;5069578;28;24832;-53
2022/04/12 12:52:29;;;;;;;6.00;5.35;;;;;;;;;;5077280;28;24410;-53
2022/04/12 12:54:55;;;;;;;6.15;5.55;;;;;;;;;;5090176;28;24422;-52
2022/04/12 12:57:42;;;;;;;6.13;5.57;;;;;;;;;;5089912;28;24436;-53
2022/04/12 13:00:08;;;;;;;5.82;5.22;;;;;;;;;;5086817;28;24464;-53
2022/04/12 13:02:34;;;;;;;6.10;5.25;;;;;;;;;;5089448;28;24394;-53
2022/04/12 13:05:01;;;;;;;6.43;4.95;;;;;;;;;;5089917;28;24405;-53
2022/04/12 13:07:30;;;;;;;4.65;4.25;;;;;;;;;;5089848;28;24805;-53
2022/04/12 13:09:57;;;;;;;5.60;5.10;;;;;;;;;;5087329;28;24484;-52
2022/04/12 13:12:22;;;;;;;5.90;5.30;;;;;;;;;;5089382;28;24948;-53
2022/04/12 13:14:48;;;;;;;5.38;4.88;;;;;;;;;;5088284;28;24412;-53
2022/04/12 13:17:14;;;;;;;8.40;5.90;;;;;;;;;;5084162;28;24528;-53
2022/04/12 13:19:39;;;;;;;5.88;5.28;;;;;;;;;;5068863;28;24849;-53
2022/04/12 13:22:05;;;;;;;5.57;5.07;;;;;;;;;;5065255;28;24430;-53
2022/04/12 13:24:32;;;;;;;6.00;5.40;;;;;;;;;;5069700;28;24422;-53
2022/04/12 13:26:58;;;;;;;5.75;5.15;;;;;;;;;;5070153;28;24429;-52
2022/04/12 13:29:25;;;;;;;6.10;5.10;;;;;;;;;;5074010;28;24439;-52
2022/04/12 13:31:50;;;;;;;5.22;4.72;;;;;;;;;;5081593;28;24789;-52
2022/04/12 13:34:15;;;;;;;5.40;4.90;;;;;;;;;;5077688;28;24442;-53
2022/04/12 13:36:40;;;;;;;5.93;5.33;;;;;;;;;;5066721;28;24945;-53
2022/04/12 13:39:08;;;;;;;7.53;5.60;;;;;;;;;;5086592;28;24410;-53
2022/04/12 13:41:34;;;;;;;6.22;5.13;;;;;;;;;;5081982;28;24430;-54
2022/04/12 13:43:59;;;;;;;6.00;5.40;;;;;;;;;;5075707;28;24449;-53
2022/04/12 13:46:25;;;;;;;5.47;4.60;;;;;;;;;;5077287;28;25042;-52
2022/04/12 13:48:50;;;;;;;5.03;4.53;;;;;;;;;;5088278;28;24419;-58
2022/04/12 13:51:15;;;;;;;6.60;5.68;;;;;;;;;;5086290;28;24987;-52
2022/04/12 13:53:40;;;;;;;7.00;5.90;;;;;;;;;;5080630;28;24460;-52
2022/04/12 13:56:05;;;;;;;6.70;5.00;;;;;;;;;;5068545;28;24743;-52
2022/04/12 13:58:30;;;;;;;5.27;4.77;;;;;;;;;;5080996;28;24819;-53
2022/04/12 14:00:56;;;;;;;6.63;5.80;;;;;;;;;;5088931;28;24409;-52
2022/04/12 14:03:22;;;;;;;6.77;6.07;;;;;;;;;;5076536;28;24964;-51
2022/04/12 14:05:47;;;;;;;7.03;6.33;;;;;;;;;;5076073;28;24423;-52
2022/04/12 14:08:12;;;;;;;6.10;5.50;;;;;;;;;;5067586;28;25034;-54
2022/04/12 14:10:38;;;;;;;5.67;5.07;;;;;;;;;;5078670;28;25052;-53
2022/04/12 14:13:05;;;;;;;7.63;6.90;;;;;;;;;;5075012;28;24425;-52
2022/04/12 14:15:30;;;;;;;8.15;7.13;;;;;;;;;;5067679;28;24500;-52
2022/04/12 14:17:55;;;;;;;7.67;6.97;;;;;;;;;;5067674;28;24443;-53
2022/04/12 14:20:21;;;;;;;7.82;6.97;;;;;;;;;;5067431;28;24505;-52
2022/04/12 14:22:46;;;;;;;7.80;7.03;;;;;;;;;;5074396;28;24454;-53
2022/04/12 14:25:12;;;;;;;8.15;7.35;;;;;;;;;;5087630;28;24422;-51
2022/04/12 14:27:37;;;;;;;8.30;7.50;;;;;;;;;;5076549;28;24983;-52
2022/04/12 14:30:02;;;;;;;7.90;7.10;;;;;;;;;;5066574;28;24926;-51
2022/04/12 14:32:27;;;;;;;7.43;6.60;;;;;;;;;;5067106;28;24963;-53
2022/04/12 14:34:53;;;;;;;7.18;6.47;;;;;;;;;;5067981;28;24383;-54
2022/04/12 14:37:18;;;;;;;6.85;5.80;;;;;;;;;;5076704;28;24939;-52
2022/04/12 14:39:45;;;;;;;6.80;6.10;;;;;;;;;;5074356;28;25006;-51